47VA weather

Division Five Heliport
Chesapeake, Virginia, United States

Public forecast

Using degrees Fahrenheit for public forecast. Weather courtesy of forecast.io.

Closest aviation weather report (METAR) to Division Five Heliport

Closest report is Norfolk International Airport, 6.2 nm (11.4 km) NNE. Retrieved 2020/03/28 13:51 UTC (15 minutes ago):

KORF 281351Z 10SM OVC008 19/17 A2997 RMK AO2 SLP148 T01940167

Closest aviation forecast (TAF) to Division Five Heliport

Closest forecast is Norfolk International Airport, 6.2 nm (11.4 km) NNE. Retrieved 2020/03/28 12:22 UTC (2 hours ago):

TAF KORF 281120Z 2812/2912 13004KT P6SM OVC040 FM281300 13009KT P6SM OVC015 FM281600 14008KT P6SM OVC025 FM281800 15007KT P6SM OVC050 FM282200 16005KT P6SM BKN200 FM290400 21007KT P6SM BKN250